SBFZ/FOR METAR and TAF weather

Enter ICAO airport designator
Station Type Date Time Source
SBFZ METAR 2021/09/28 05:00 UTC NOAA

SBFZ 280500Z 09010KT 9999 BKN021 27/23 Q1012


Station Type Date Time Source
SBFZ Decoded METAR 2021/09/28 05:00 UTC NOAA

Fortaleza / pinto Martins , Brazil (SBFZ) 03-47S 038-32W 25M
Sep 28, 2021 - 01:00 AM EDT / 2021.09.28 0500 UTC
Wind: from the E (090 degrees) at 12 MPH (10 KT):0
Visibility: greater than 7 mile(s):0
Sky conditions: mostly cloudy
Temperature: 80 F (27 C)
Dew Point: 73 F (23 C)
Relative Humidity: 78%
Pressure (altimeter): 29.88 in. Hg (1012 hPa)
ob: SBFZ 280500Z 09010KT 9999 BKN021 27/23 Q1012
cycle: 5

Station Type Date Time Source
SBFZ TAF 2021/09/28 06:30 UTC NOAA

TAF SBFZ 280300Z 2806/2906 13010KT 9999 SCT017 TX31/2816Z TN27/2906Z
BECMG 2809/2811 14015KT BKN020
BECMG 2813/2815 10018KT 9999 SCT025
BECMG 2816/2818 09015KT FEW025
BECMG 2822/2824 10010KT SCT017
BECMG 2900/2902 12015KT SCT020
RMK PGY

Example: see airport list